createdAt,value
2023-03-01T00:01:35.091Z,98306.69
2023-03-01T00:04:03.485Z,98304.53
2023-03-01T00:06:32.158Z,98309.53
2023-03-01T00:09:00.756Z,98312.88
2023-03-01T00:11:31.034Z,98320.06
2023-03-01T00:14:02.863Z,98316.78
2023-03-01T00:16:35.484Z,98319.03
2023-03-01T00:19:04.165Z,98313.81
2023-03-01T00:21:33.369Z,98310.81
2023-03-01T00:24:02.176Z,98313.88
2023-03-01T00:26:31.188Z,98308.13
2023-03-01T00:29:01.170Z,98307.59
2023-03-01T00:31:33.343Z,98309.31
2023-03-01T00:34:04.634Z,98303.81
2023-03-01T00:36:35.469Z,98304.38
2023-03-01T00:39:05.431Z,98309.06
2023-03-01T00:41:35.501Z,98301.69
2023-03-01T00:44:04.295Z,98302.81
2023-03-01T00:46:35.311Z,98300.66
2023-03-01T00:49:05.442Z,98301.75
2023-03-01T00:51:34.077Z,98297.38
2023-03-01T00:54:04.145Z,98299.59
2023-03-01T00:56:33.274Z,98297.94
2023-03-01T00:59:02.620Z,98301.81
2023-03-01T01:01:32.809Z,98295.78
2023-03-01T01:04:04.553Z,98294.97
2023-03-01T01:06:36.206Z,98289.75
2023-03-01T01:09:07.790Z,98293.63
2023-03-01T01:11:37.453Z,98290.34
2023-03-01T01:14:06.572Z,98288.69
2023-03-01T01:16:34.982Z,98276.06
2023-03-01T01:19:05.413Z,98287.06
2023-03-01T01:21:34.095Z,98283.75
2023-03-01T01:24:02.463Z,98278.25
2023-03-01T01:26:33.283Z,98279.34
2023-03-01T01:29:02.979Z,98274.97
2023-03-01T01:31:32.385Z,98278.81
2023-03-01T01:34:02.198Z,98271.97
2023-03-01T01:36:32.789Z,98268.13
2023-03-01T01:39:01.612Z,98267.59
2023-03-01T01:41:31.221Z,98266.78
2023-03-01T01:44:15.762Z,98259.63
2023-03-01T01:46:46.396Z,98265.13
2023-03-01T01:49:24.706Z,98262.66
2023-03-01T01:52:02.409Z,98261.03
2023-03-01T01:54:36.808Z,98259.41
2023-03-01T01:57:11.169Z,98263.25
2023-03-01T01:59:41.017Z,98250.63
2023-03-01T02:02:09.924Z,98249.78
2023-03-01T02:04:38.389Z,98249.78
2023-03-01T02:07:16.028Z,98238.25
2023-03-01T02:09:48.220Z,98240.50
2023-03-01T02:12:19.007Z,98232.22
2023-03-01T02:14:47.655Z,98240.50
2023-03-01T02:17:19.089Z,98228.97
2023-03-01T02:20:00.192Z,98227.03
2023-03-01T02:22:33.569Z,98223.44
2023-03-01T02:25:14.710Z,98218.53
2023-03-01T02:27:51.319Z,98224.56
2023-03-01T02:30:22.553Z,98221.81
2023-03-01T02:32:54.050Z,98210.81
2023-03-01T02:35:23.141Z,98211.94
2023-03-01T02:37:52.344Z,98213.03
2023-03-01T02:40:22.561Z,98210.28
2023-03-01T02:42:56.411Z,98207.53
2023-03-01T02:45:27.324Z,98211.41
2023-03-01T02:47:56.449Z,98205.09
2023-03-01T02:50:45.323Z,98203.16
2023-03-01T02:53:17.297Z,98202.63
2023-03-01T02:55:45.829Z,98204.25
2023-03-01T02:58:14.916Z,98204.25
2023-03-01T03:00:46.463Z,98197.94
2023-03-01T03:03:17.170Z,98193.25
2023-03-01T03:05:45.700Z,98190.81
2023-03-01T03:08:15.172Z,98183.38
2023-03-01T03:10:44.891Z,98181.22
2023-03-01T03:13:15.122Z,98178.97
2023-03-01T03:15:46.658Z,98171.84
2023-03-01T03:18:17.716Z,98173.47
2023-03-01T03:20:47.291Z,98169.09
2023-03-01T03:23:16.152Z,98170.22
2023-03-01T03:25:44.570Z,98171.84
2023-03-01T03:28:12.956Z,98170.22
2023-03-01T03:30:43.032Z,98165.81
2023-03-01T03:33:14.862Z,98167.47
2023-03-01T03:35:45.429Z,98164.72
2023-03-01T03:38:18.269Z,98164.72
2023-03-01T03:40:48.395Z,98165.53
2023-03-01T03:43:19.503Z,98164.72
2023-03-01T03:45:49.351Z,98159.22
2023-03-01T03:48:19.914Z,98157.56
2023-03-01T03:50:51.112Z,98157.56
2023-03-01T03:53:20.158Z,98156.75
2023-03-01T03:55:50.237Z,98154.00
2023-03-01T03:58:20.705Z,98155.94
2023-03-01T04:00:51.752Z,98151.25
2023-03-01T04:03:22.921Z,98147.97
2023-03-01T04:05:52.400Z,98148.78
2023-03-01T04:08:22.251Z,98146.34
2023-03-01T04:10:52.608Z,98147.16
2023-03-01T04:13:23.460Z,98147.16
2023-03-01T04:15:52.684Z,98146.34
2023-03-01T04:18:24.158Z,98140.03
2023-03-01T04:20:56.110Z,98140.84
2023-03-01T04:23:24.861Z,98140.03
2023-03-01T04:25:56.013Z,98144.69
2023-03-01T04:28:26.019Z,98143.88
2023-03-01T04:30:55.649Z,98143.88
2023-03-01T04:33:26.607Z,98131.25
2023-03-01T04:35:55.177Z,98136.75
2023-03-01T04:38:23.700Z,98137.56
2023-03-01T04:40:52.169Z,98124.63
2023-03-01T04:43:20.532Z,98138.69
2023-03-01T04:45:48.996Z,98140.59
2023-03-01T04:48:17.438Z,98140.59
2023-03-01T04:50:47.225Z,98135.09
2023-03-01T04:53:15.645Z,98143.34
2023-03-01T04:55:44.163Z,98135.41
2023-03-01T04:58:12.690Z,98139.78
2023-03-01T05:00:41.058Z,98142.00
2023-03-01T05:03:10.807Z,98142.84
2023-03-01T05:05:40.491Z,98138.16
2023-03-01T05:08:17.839Z,98130.19
2023-03-01T05:10:48.131Z,98131.84
2023-03-01T05:13:21.810Z,98133.47
2023-03-01T05:15:51.245Z,98132.28
2023-03-01T05:18:19.758Z,98126.06
2023-03-01T05:20:48.352Z,98129.13
2023-03-01T05:23:18.231Z,98121.53
2023-03-01T05:25:46.910Z,98127.16
2023-03-01T05:28:15.722Z,98123.13
2023-03-01T05:30:44.428Z,98120.22
2023-03-01T05:33:15.092Z,98115.72
2023-03-01T05:35:44.877Z,98117.34
2023-03-01T05:38:15.039Z,98118.19
2023-03-01T05:40:46.576Z,98114.69
2023-03-01T05:43:16.140Z,98108.38
2023-03-01T05:45:44.930Z,98120.84
2023-03-01T05:48:14.444Z,98118.16
2023-03-01T05:50:44.528Z,98112.53
2023-03-01T05:53:14.932Z,98117.63
2023-03-01T05:55:47.117Z,98113.63
2023-03-01T05:58:20.834Z,98102.97
2023-03-01T06:00:51.158Z,98108.06
2023-03-01T06:03:20.283Z,98110.72
2023-03-01T06:05:48.740Z,98116.75
2023-03-01T06:08:17.202Z,98112.53
2023-03-01T06:10:48.594Z,98119.06
2023-03-01T06:13:17.032Z,98115.38
2023-03-01T06:15:45.509Z,98112.81
2023-03-01T06:18:13.905Z,98117.41
2023-03-01T06:20:42.294Z,98107.19
2023-03-01T06:23:10.805Z,98113.53
2023-03-01T06:25:39.335Z,98106.56
2023-03-01T06:28:09.157Z,98104.28
2023-03-01T06:30:37.607Z,98111.44
2023-03-01T06:33:06.009Z,98114.72
2023-03-01T06:35:34.867Z,98104.47
2023-03-01T06:38:05.127Z,98110.00
2023-03-01T06:40:36.292Z,98111.63
2023-03-01T06:43:04.878Z,98097.50
2023-03-01T06:45:34.571Z,98104.03
2023-03-01T06:48:06.904Z,98107.31
2023-03-01T06:50:35.500Z,98110.25
2023-03-01T06:53:04.546Z,98102.78
2023-03-01T06:55:33.544Z,98107.50
2023-03-01T06:58:03.873Z,98101.28
2023-03-01T07:00:34.089Z,98102.22
2023-03-01T07:03:04.344Z,98104.78
2023-03-01T07:05:32.943Z,98104.78
2023-03-01T07:08:01.338Z,98106.44
2023-03-01T07:10:29.904Z,98101.41
2023-03-01T07:12:58.882Z,98106.31
2023-03-01T07:15:28.206Z,98100.16
2023-03-01T07:17:58.106Z,98103.41
2023-03-01T07:20:26.844Z,98097.25
2023-03-01T07:22:59.401Z,98098.06
2023-03-01T07:25:27.901Z,98106.03
2023-03-01T07:27:56.421Z,98103.59
2023-03-01T07:30:26.932Z,98098.38
2023-03-01T07:32:55.959Z,98101.16
2023-03-01T07:35:27.732Z,98093.81
2023-03-01T07:37:56.237Z,98086.97
2023-03-01T07:40:24.666Z,98087.09
2023-03-01T07:42:58.936Z,98075.84
2023-03-01T07:45:30.788Z,98076.78
2023-03-01T07:47:59.314Z,98081.81
2023-03-01T07:50:29.102Z,98069.75
2023-03-01T07:52:57.517Z,98073.13
2023-03-01T07:55:25.961Z,98074.06
2023-03-01T07:57:54.334Z,98076.94
2023-03-01T08:00:23.202Z,98067.97
2023-03-01T08:02:51.666Z,98068.59
2023-03-01T08:05:20.199Z,98064.31
2023-03-01T08:07:50.162Z,98071.59
2023-03-01T08:10:19.239Z,98071.72
2023-03-01T08:12:47.718Z,98061.91
2023-03-01T08:15:16.157Z,98067.25
2023-03-01T08:17:44.608Z,98062.16
2023-03-01T08:20:13.781Z,98060.31
2023-03-01T08:22:42.237Z,98056.25
2023-03-01T08:25:12.143Z,98056.25
2023-03-01T08:27:40.580Z,98050.72
2023-03-01T08:30:10.507Z,98053.16
2023-03-01T08:32:40.579Z,98060.63
2023-03-01T08:35:09.881Z,98047.03
2023-03-01T08:37:38.389Z,98051.41
2023-03-01T08:40:10.921Z,98047.03
2023-03-01T08:42:40.825Z,98050.91
2023-03-01T08:45:10.676Z,98041.31
2023-03-01T08:47:39.192Z,98048.47
2023-03-01T08:50:08.512Z,98045.72
2023-03-01T08:52:36.971Z,98037.44
2023-03-01T08:55:06.161Z,98034.34
2023-03-01T08:57:34.599Z,98029.16
2023-03-01T09:00:08.922Z,98030.28
2023-03-01T09:02:37.806Z,98028.13
2023-03-01T09:05:06.841Z,98019.34
2023-03-01T09:07:35.470Z,98026.63
2023-03-01T09:10:04.047Z,98024.47
2023-03-01T09:12:32.522Z,98020.09
2023-03-01T09:15:00.963Z,98019.28
2023-03-01T09:17:30.752Z,98013.56
2023-03-01T09:20:00.601Z,98021.31
2023-03-01T09:22:29.085Z,98008.97
2023-03-01T09:25:00.167Z,98003.22
2023-03-01T09:27:28.773Z,98002.72
2023-03-01T09:29:58.164Z,97995.56
2023-03-01T09:32:26.745Z,97997.81
2023-03-01T09:35:08.618Z,97991.81
2023-03-01T09:37:38.287Z,97996.31
2023-03-01T09:40:16.531Z,97991.72
2023-03-01T09:42:53.635Z,97994.28
2023-03-01T09:45:31.333Z,98001.53
2023-03-01T09:48:00.569Z,97994.69
2023-03-01T09:50:36.755Z,97980.72
2023-03-01T09:53:09.237Z,97995.13
2023-03-01T09:55:43.245Z,97985.00
2023-03-01T09:58:28.142Z,97992.00
2023-03-01T10:01:01.469Z,97981.56
2023-03-01T10:03:36.899Z,97977.50
2023-03-01T10:06:27.468Z,97971.78
2023-03-01T10:09:07.502Z,97964.94
2023-03-01T10:11:40.565Z,97968.81
2023-03-01T10:14:23.402Z,97961.97
2023-03-01T10:16:58.967Z,97958.22
2023-03-01T10:19:33.102Z,97959.34
2023-03-01T10:22:07.456Z,97953.31
2023-03-01T10:24:38.187Z,97965.47
2023-03-01T10:27:11.212Z,97954.22
2023-03-01T10:29:47.334Z,97956.47
2023-03-01T10:32:16.528Z,97963.41
2023-03-01T10:34:44.987Z,97956.28
2023-03-01T10:37:16.828Z,97947.50
2023-03-01T10:39:59.691Z,97954.13
2023-03-01T10:42:31.053Z,97945.06
2023-03-01T10:45:01.030Z,97946.19
2023-03-01T10:47:29.964Z,97943.72
2023-03-01T10:50:01.452Z,97939.34
2023-03-01T10:52:42.629Z,97928.91
2023-03-01T10:55:28.739Z,97926.97
2023-03-01T10:58:10.342Z,97922.56
2023-03-01T11:00:49.689Z,97919.00
2023-03-01T11:03:22.748Z,97912.97
2023-03-01T11:06:22.835Z,97905.03
2023-03-01T11:08:53.850Z,97903.41
2023-03-01T11:11:26.764Z,97904.81
2023-03-01T11:13:58.331Z,97903.69
2023-03-01T11:16:34.476Z,97900.13
2023-03-01T11:19:16.629Z,97891.06
2023-03-01T11:21:55.050Z,97886.66
2023-03-01T11:24:29.690Z,97888.28
2023-03-01T11:27:01.176Z,97873.19
2023-03-01T11:29:47.884Z,97873.00
2023-03-01T11:32:17.351Z,97860.97
2023-03-01T11:34:49.786Z,97863.81
2023-03-01T11:37:39.701Z,97871.56
2023-03-01T11:40:18.834Z,97858.72
2023-03-01T11:43:02.852Z,97856.28
2023-03-01T11:45:41.775Z,97839.03
2023-03-01T11:48:48.479Z,97844.84
2023-03-01T11:51:27.864Z,97841.59
2023-03-01T11:54:08.181Z,97838.34
2023-03-01T11:56:42.696Z,97835.06
2023-03-01T11:59:28.098Z,97826.31
2023-03-01T12:02:11.657Z,97816.41
2023-03-01T12:05:02.495Z,97824.16
2023-03-01T12:07:43.318Z,97819.78
2023-03-01T12:10:23.839Z,97796.94
2023-03-01T12:13:20.990Z,97788.97
2023-03-01T12:16:35.973Z,97782.97
2023-03-01T12:19:32.585Z,97777.47
2023-03-01T12:22:19.100Z,97776.97
2023-03-01T12:25:09.339Z,97777.78
2023-03-01T12:28:22.111Z,97771.44
2023-03-01T12:31:14.357Z,97775.22
2023-03-01T12:33:53.700Z,97763.09
2023-03-01T12:36:38.689Z,97754.22
2023-03-01T12:39:23.430Z,97760.22
2023-03-01T12:42:00.538Z,97752.47
2023-03-01T12:44:50.798Z,97742.59
2023-03-01T12:47:32.670Z,97738.22
2023-03-01T12:50:04.509Z,97725.25
2023-03-01T12:52:40.687Z,97730.47
2023-03-01T12:55:24.275Z,97719.75
2023-03-01T12:58:02.175Z,97724.44
2023-03-01T13:00:34.791Z,97712.94
2023-03-01T13:03:14.641Z,97715.19
2023-03-01T13:05:54.850Z,97715.19
2023-03-01T13:08:29.493Z,97705.78
2023-03-01T13:11:02.432Z,97713.94
2023-03-01T13:13:31.639Z,97714.44
2023-03-01T13:16:25.049Z,97707.81
2023-03-01T13:19:08.826Z,97708.31
2023-03-01T13:21:37.284Z,97710.47
2023-03-01T13:24:06.376Z,97706.88
2023-03-01T13:27:25.745Z,97700.25
2023-03-01T13:29:55.777Z,97701.06
2023-03-01T13:32:37.912Z,97703.50
2023-03-01T13:35:46.001Z,97703.50
2023-03-01T13:38:40.323Z,97697.69
2023-03-01T13:41:09.307Z,97708.72
2023-03-01T13:43:39.398Z,97709.84
2023-03-01T13:46:17.464Z,97708.41
2023-03-01T13:48:47.682Z,97703.72
2023-03-01T13:51:17.493Z,97687.19
2023-03-01T13:53:48.557Z,97680.88
2023-03-01T13:56:21.907Z,97679.75
2023-03-01T13:58:52.806Z,97695.44
2023-03-01T14:01:30.617Z,97696.56
2023-03-01T14:04:01.825Z,97700.16
2023-03-01T14:06:34.666Z,97704.53
2023-03-01T14:09:10.719Z,97700.44
2023-03-01T14:12:18.364Z,97706.59
2023-03-01T14:14:54.100Z,97702.31
2023-03-01T14:17:48.296Z,97709.06
2023-03-01T14:20:21.003Z,97710.28
2023-03-01T14:22:54.721Z,97708.47
2023-03-01T14:25:27.100Z,97715.41
2023-03-01T14:27:59.428Z,97710.50
2023-03-01T14:30:33.024Z,97720.50
2023-03-01T14:33:02.990Z,97707.34
2023-03-01T14:35:35.396Z,97726.59
2023-03-01T14:38:05.551Z,97717.41
2023-03-01T14:40:35.877Z,97717.00
2023-03-01T14:43:12.187Z,97715.00
2023-03-01T14:45:40.701Z,97713.78
2023-03-01T14:48:09.909Z,97719.16
2023-03-01T14:50:43.201Z,97713.88
2023-03-01T14:53:20.922Z,97708.06
2023-03-01T14:55:53.679Z,97713.56
2023-03-01T14:58:23.886Z,97710.31
2023-03-01T15:00:55.046Z,97711.94
2023-03-01T15:03:33.058Z,97706.44
2023-03-01T15:06:03.562Z,97707.25
2023-03-01T15:08:35.266Z,97710.50
2023-03-01T15:11:09.205Z,97705.00
2023-03-01T15:13:37.628Z,97711.31
2023-03-01T15:16:12.257Z,97711.31
2023-03-01T15:18:46.846Z,97704.50
2023-03-01T15:21:19.884Z,97713.38
2023-03-01T15:23:56.218Z,97713.97
2023-03-01T15:26:27.406Z,97706.84
2023-03-01T15:28:59.474Z,97715.41
2023-03-01T15:31:30.049Z,97717.34
2023-03-01T15:34:24.785Z,97712.16
2023-03-01T15:36:55.545Z,97697.88
2023-03-01T15:39:39.149Z,97711.34
2023-03-01T15:42:11.113Z,97699.50
2023-03-01T15:44:44.081Z,97700.03
2023-03-01T15:47:31.679Z,97700.84
2023-03-01T15:50:01.860Z,97695.84
2023-03-01T15:52:36.017Z,97693.91
2023-03-01T15:55:07.494Z,97691.97
2023-03-01T15:57:36.096Z,97690.84
2023-03-01T16:00:12.169Z,97683.91
2023-03-01T16:02:41.457Z,97676.47
2023-03-01T16:05:20.438Z,97670.97
2023-03-01T16:07:48.813Z,97663.22
2023-03-01T16:10:19.450Z,97663.22
2023-03-01T16:12:49.222Z,97664.03
2023-03-01T16:15:20.688Z,97670.34
2023-03-01T16:17:49.552Z,97674.22
2023-03-01T16:20:29.124Z,97678.91
2023-03-01T16:23:01.426Z,97678.09
2023-03-01T16:25:33.109Z,97670.97
2023-03-01T16:28:09.641Z,97681.97
2023-03-01T16:30:40.335Z,97680.53
2023-03-01T16:33:24.254Z,97675.66
2023-03-01T16:35:57.575Z,97687.16
2023-03-01T16:38:26.289Z,97688.47
2023-03-01T16:40:56.076Z,97697.44
2023-03-01T16:43:24.538Z,97696.84
2023-03-01T16:45:53.166Z,97705.00
2023-03-01T16:48:21.639Z,97711.00
2023-03-01T16:50:58.517Z,97717.00
2023-03-01T16:53:27.039Z,97711.50
2023-03-01T16:55:57.855Z,97716.44
2023-03-01T16:58:26.813Z,97717.56
2023-03-01T17:00:57.211Z,97723.56
2023-03-01T17:03:29.506Z,97728.50
2023-03-01T17:05:58.005Z,97732.88
2023-03-01T17:08:26.594Z,97735.00
2023-03-01T17:10:55.063Z,97734.09
2023-03-01T17:13:25.398Z,97741.13
2023-03-01T17:15:53.808Z,97741.84
2023-03-01T17:18:22.487Z,97746.44
2023-03-01T17:20:50.939Z,97744.72
2023-03-01T17:23:19.422Z,97749.59
2023-03-01T17:25:48.151Z,97759.50
2023-03-01T17:28:16.771Z,97762.25
2023-03-01T17:30:47.838Z,97766.31
2023-03-01T17:33:17.125Z,97767.66
2023-03-01T17:35:47.188Z,97768.16
2023-03-01T17:38:16.415Z,97765.94
2023-03-01T17:40:46.384Z,97757.38
2023-03-01T17:43:15.990Z,97752.69
2023-03-01T17:45:48.570Z,97754.34
2023-03-01T17:48:17.671Z,97752.69
2023-03-01T17:50:46.530Z,97759.84
2023-03-01T17:53:15.373Z,97748.84
2023-03-01T17:55:45.698Z,97753.22
2023-03-01T17:58:15.503Z,97746.69
2023-03-01T18:00:44.013Z,97759.84
2023-03-01T18:03:13.827Z,97771.66
2023-03-01T18:05:42.400Z,97755.16
2023-03-01T18:08:11.002Z,97755.16
2023-03-01T18:10:39.451Z,97770.84
2023-03-01T18:13:08.271Z,97767.88
2023-03-01T18:15:37.935Z,97763.50
2023-03-01T18:18:06.805Z,97767.66
2023-03-01T18:20:36.629Z,97769.59
2023-03-01T18:23:06.663Z,97767.94
2023-03-01T18:25:35.253Z,97769.38
2023-03-01T18:28:04.493Z,97774.88
2023-03-01T18:30:33.681Z,97777.13
2023-03-01T18:33:02.149Z,97782.63
2023-03-01T18:35:31.475Z,97773.84
2023-03-01T18:38:01.313Z,97780.97
2023-03-01T18:40:30.113Z,97772.22
2023-03-01T18:42:58.623Z,97781.59
2023-03-01T18:45:27.135Z,97771.41
2023-03-01T18:47:55.593Z,97777.22
2023-03-01T18:50:24.002Z,97768.97
2023-03-01T18:52:52.351Z,97778.34
2023-03-01T18:55:22.732Z,97778.34
2023-03-01T18:57:51.156Z,97767.31
2023-03-01T19:00:21.127Z,97772.31
2023-03-01T19:02:49.649Z,97769.56
2023-03-01T19:05:18.265Z,97765.19
2023-03-01T19:07:46.724Z,97756.13
2023-03-01T19:10:15.185Z,97760.81
2023-03-01T19:12:44.999Z,97760.81
2023-03-01T19:15:16.118Z,97748.16
2023-03-01T19:17:44.930Z,97757.53
2023-03-01T19:20:13.848Z,97756.72
2023-03-01T19:22:42.300Z,97750.72
2023-03-01T19:25:11.334Z,97751.03
2023-03-01T19:27:39.819Z,97756.50
2023-03-01T19:30:11.443Z,97745.00
2023-03-01T19:32:39.843Z,97746.94
2023-03-01T19:35:09.117Z,97744.50
2023-03-01T19:37:37.783Z,97737.66
2023-03-01T19:40:07.577Z,97732.47
2023-03-01T19:42:36.089Z,97730.03
2023-03-01T19:45:05.058Z,97735.53
2023-03-01T19:47:35.975Z,97724.81
2023-03-01T19:50:04.613Z,97725.94
2023-03-01T19:52:33.018Z,97724.31
2023-03-01T19:55:09.531Z,97729.81
2023-03-01T19:57:38.270Z,97728.19
2023-03-01T20:00:08.181Z,97724.31
2023-03-01T20:02:42.395Z,97722.69
2023-03-01T20:05:12.052Z,97719.44
2023-03-01T20:07:40.485Z,97724.94
2023-03-01T20:10:10.279Z,97727.69
2023-03-01T20:12:39.204Z,97723.50
2023-03-01T20:15:09.010Z,97727.38
2023-03-01T20:17:37.540Z,97724.94
2023-03-01T20:20:08.256Z,97725.44
2023-03-01T20:22:36.717Z,97730.94
2023-03-01T20:25:06.467Z,97715.56
2023-03-01T20:27:35.025Z,97717.19
2023-03-01T20:30:03.426Z,97719.44
2023-03-01T20:32:32.083Z,97710.88
2023-03-01T20:35:00.499Z,97719.94
2023-03-01T20:37:30.294Z,97710.06
2023-03-01T20:39:58.659Z,97730.44
2023-03-01T20:42:27.083Z,97726.56
2023-03-01T20:44:55.507Z,97727.69
2023-03-01T20:47:23.961Z,97726.56
2023-03-01T20:49:52.744Z,97730.44
2023-03-01T20:52:21.131Z,97720.53
2023-03-01T20:54:50.944Z,97723.28
2023-03-01T20:57:19.371Z,97724.94
2023-03-01T20:59:47.842Z,97723.28
2023-03-01T21:02:16.835Z,97716.16
2023-03-01T21:04:45.236Z,97722.47
2023-03-01T21:07:13.600Z,97724.94
2023-03-01T21:09:44.724Z,97721.66
2023-03-01T21:12:14.742Z,97720.84
2023-03-01T21:14:47.233Z,97720.03
2023-03-01T21:17:18.129Z,97717.88
2023-03-01T21:19:46.823Z,97718.19
2023-03-01T21:22:16.470Z,97719.81
2023-03-01T21:24:45.184Z,97717.38
2023-03-01T21:27:15.007Z,97715.13
2023-03-01T21:29:45.835Z,97706.38
2023-03-01T21:32:15.417Z,97713.50
2023-03-01T21:34:46.352Z,97712.38
2023-03-01T21:37:14.942Z,97708.81
2023-03-01T21:39:43.312Z,97709.63
2023-03-01T21:42:11.718Z,97709.63
2023-03-01T21:44:41.475Z,97708.81
2023-03-01T21:47:10.304Z,97713.50
2023-03-01T21:49:39.081Z,97708.00
2023-03-01T21:52:07.504Z,97706.06
2023-03-01T21:54:35.987Z,97708.81
2023-03-01T21:57:04.476Z,97708.00
2023-03-01T21:59:32.816Z,97702.50
2023-03-01T22:02:02.560Z,97695.38
2023-03-01T22:04:31.043Z,97695.38
2023-03-01T22:06:59.451Z,97695.38
2023-03-01T22:09:27.895Z,97707.19
2023-03-01T22:12:02.042Z,97698.13
2023-03-01T22:14:30.973Z,97700.88
2023-03-01T22:16:59.504Z,97695.38
2023-03-01T22:19:30.162Z,97695.38
2023-03-01T22:21:58.545Z,97698.44
2023-03-01T22:24:27.174Z,97690.19
2023-03-01T22:26:55.702Z,97696.50
2023-03-01T22:29:26.444Z,97692.13
2023-03-01T22:31:56.423Z,97692.13
2023-03-01T22:34:25.522Z,97690.50
2023-03-01T22:36:55.340Z,97692.94
2023-03-01T22:39:23.796Z,97692.13
2023-03-01T22:41:52.201Z,97687.75
2023-03-01T22:44:22.775Z,97685.00
2023-03-01T22:46:52.210Z,97685.00
2023-03-01T22:49:21.389Z,97683.38
2023-03-01T22:51:49.906Z,97679.50
2023-03-01T22:54:20.548Z,97685.00
2023-03-01T22:56:49.560Z,97678.69
2023-03-01T22:59:20.781Z,97684.47
2023-03-01T23:01:49.872Z,97683.38
2023-03-01T23:04:19.617Z,97680.63
2023-03-01T23:06:56.715Z,97685.00
2023-03-01T23:09:29.968Z,97679.50
2023-03-01T23:11:59.629Z,97677.88
2023-03-01T23:14:31.551Z,97682.56
2023-03-01T23:17:01.956Z,97666.06
2023-03-01T23:19:31.962Z,97672.38
2023-03-01T23:22:00.410Z,97666.06
2023-03-01T23:24:32.443Z,97669.13
2023-03-01T23:27:02.478Z,97665.25
2023-03-01T23:29:31.167Z,97666.06
2023-03-01T23:32:00.304Z,97669.13
2023-03-01T23:34:29.403Z,97661.97
2023-03-01T23:36:58.610Z,97669.13
2023-03-01T23:39:29.799Z,97659.22
2023-03-01T23:41:59.532Z,97658.94
2023-03-01T23:44:27.984Z,97663.63
2023-03-01T23:46:56.420Z,97659.22
2023-03-01T23:49:25.006Z,97661.97
2023-03-01T23:51:53.499Z,97654.84
2023-03-01T23:54:24.243Z,97654.84
2023-03-01T23:56:52.976Z,97654.03
2023-03-01T23:59:25.362Z,97653.22
